Time;durP1;ratioP1;P1;durP2;ratioP2;P2;SDS_P1;SDS_P2;PMS_P1;PMS_P2;Temp;Humidity;BMP_temperature;BMP_pressure;BME280_temperature;BME280_humidity;BME280_pressure;Samples;Min_cycle;Max_cycle;Signal;HPM_P1;HPM_P2
2023/01/16 00:00:48;;;;;;;6.63;3.05;;;;;;;;;;5048367;28;20751;-86
2023/01/16 00:03:14;;;;;;;7.85;3.58;;;;;;;;;;5048554;28;20044;-85
2023/01/16 00:05:40;;;;;;;6.10;2.65;;;;;;;;;;5032066;28;20040;-85
2023/01/16 00:08:06;;;;;;;7.05;2.55;;;;;;;;;;5023712;28;20483;-84
2023/01/16 00:10:32;;;;;;;6.45;3.15;;;;;;;;;;5032262;28;20052;-84
2023/01/16 00:12:57;;;;;;;3.75;2.20;;;;;;;;;;5031521;28;20043;-86
2023/01/16 00:15:23;;;;;;;7.47;2.97;;;;;;;;;;5048358;28;20040;-84
2023/01/16 00:17:49;;;;;;;6.78;2.67;;;;;;;;;;5034393;28;20106;-85
2023/01/16 00:20:16;;;;;;;5.38;2.58;;;;;;;;;;5031580;28;20131;-84
2023/01/16 00:22:42;;;;;;;7.03;2.75;;;;;;;;;;5047755;28;20140;-84
2023/01/16 00:25:08;;;;;;;9.27;3.00;;;;;;;;;;5048349;28;20127;-85
2023/01/16 00:27:34;;;;;;;9.93;3.22;;;;;;;;;;5031318;28;20051;-85
2023/01/16 00:30:00;;;;;;;6.50;2.85;;;;;;;;;;5048151;28;20221;-85
2023/01/16 00:32:26;;;;;;;8.07;3.13;;;;;;;;;;5047684;28;20852;-85
2023/01/16 00:34:52;;;;;;;4.15;2.30;;;;;;;;;;5031253;28;20040;-85
2023/01/16 00:37:18;;;;;;;9.13;3.42;;;;;;;;;;5031614;28;20047;-85
2023/01/16 00:39:44;;;;;;;10.98;4.45;;;;;;;;;;5047751;28;20536;-85
2023/01/16 00:42:10;;;;;;;5.47;2.85;;;;;;;;;;5047454;28;20045;-85
2023/01/16 00:44:36;;;;;;;5.00;2.85;;;;;;;;;;5047766;28;20048;-85
2023/01/16 00:47:02;;;;;;;6.07;2.45;;;;;;;;;;5031368;28;20402;-86
2023/01/16 00:49:28;;;;;;;12.98;3.50;;;;;;;;;;5031334;28;20494;-85
2023/01/16 00:51:54;;;;;;;5.78;2.65;;;;;;;;;;5051660;28;20074;-86
2023/01/16 00:54:21;;;;;;;4.35;2.22;;;;;;;;;;5035382;28;20044;-85
2023/01/16 00:56:47;;;;;;;8.35;3.10;;;;;;;;;;5051683;28;20048;-84
2023/01/16 00:59:12;;;;;;;9.85;2.60;;;;;;;;;;5035399;28;20477;-85
2023/01/16 01:01:38;;;;;;;5.53;2.90;;;;;;;;;;5022572;28;20131;-85
2023/01/16 01:04:05;;;;;;;6.13;2.70;;;;;;;;;;5050585;28;20044;-85
2023/01/16 01:06:31;;;;;;;7.75;2.80;;;;;;;;;;5051823;28;20044;-85
2023/01/16 01:08:57;;;;;;;5.25;2.47;;;;;;;;;;5038990;28;20071;-84
2023/01/16 01:11:23;;;;;;;4.47;2.55;;;;;;;;;;5050508;28;20832;-85
2023/01/16 01:13:49;;;;;;;9.07;2.70;;;;;;;;;;5051558;28;20118;-85
2023/01/16 01:16:15;;;;;;;6.40;2.88;;;;;;;;;;5031875;28;20049;-86
2023/01/16 01:18:41;;;;;;;9.13;3.75;;;;;;;;;;5024406;28;20048;-85
2023/01/16 01:21:07;;;;;;;5.13;2.88;;;;;;;;;;5034666;28;20045;-85
2023/01/16 01:23:33;;;;;;;6.68;2.15;;;;;;;;;;5051244;28;20461;-85
2023/01/16 01:26:05;;;;;;;6.15;2.63;;;;;;;;;;5034614;28;20048;-85
2023/01/16 01:28:31;;;;;;;10.70;3.22;;;;;;;;;;5051592;28;20124;-85
2023/01/16 01:30:57;;;;;;;6.55;2.90;;;;;;;;;;5051301;28;20127;-85
2023/01/16 01:33:23;;;;;;;7.35;3.00;;;;;;;;;;5034771;28;20525;-84
2023/01/16 01:35:49;;;;;;;6.85;3.33;;;;;;;;;;5034744;28;20118;-85
2023/01/16 01:38:15;;;;;;;5.18;2.75;;;;;;;;;;5034671;28;20106;-85
2023/01/16 01:40:41;;;;;;;5.57;2.38;;;;;;;;;;5034357;28;20135;-85
2023/01/16 01:43:14;;;;;;;8.18;3.17;;;;;;;;;;5050822;28;20052;-84
2023/01/16 01:45:41;;;;;;;10.57;2.95;;;;;;;;;;5051116;28;20036;-85
2023/01/16 01:48:19;;;;;;;8.40;3.50;;;;;;;;;;5051078;28;20044;-86
2023/01/16 01:50:45;;;;;;;8.27;3.20;;;;;;;;;;5034737;28;20418;-85
2023/01/16 01:53:17;;;;;;;8.57;2.90;;;;;;;;;;5037665;28;20048;-83
2023/01/16 01:55:45;;;;;;;10.77;2.95;;;;;;;;;;5020539;28;20068;-85
2023/01/16 01:58:15;;;;;;;6.32;2.72;;;;;;;;;;5050967;28;20040;-86
2023/01/16 02:00:41;;;;;;;9.45;3.65;;;;;;;;;;5050480;28;20052;-85
2023/01/16 02:03:09;;;;;;;7.10;2.90;;;;;;;;;;5022124;28;20053;-85
2023/01/16 02:05:38;;;;;;;4.40;3.00;;;;;;;;;;5030311;28;20495;-85
2023/01/16 02:08:05;;;;;;;6.80;2.50;;;;;;;;;;5040095;28;20044;-84
2023/01/16 02:10:43;;;;;;;6.03;2.35;;;;;;;;;;5033674;28;20041;-85
2023/01/16 02:13:09;;;;;;;5.80;2.90;;;;;;;;;;5050122;28;20442;-85
2023/01/16 02:15:35;;;;;;;3.03;2.47;;;;;;;;;;5050199;28;20131;-85
2023/01/16 02:21:13;;;;;;;4.53;3.23;;;;;;;;;;5050117;28;20076;-86
2023/01/16 02:23:39;;;;;;;7.25;2.92;;;;;;;;;;5038212;28;20044;-86
2023/01/16 02:27:02;;;;;;;10.70;2.97;;;4.00;99.90;;;;;;5033259;28;20040;-85
2023/01/16 02:29:35;;;;;;;8.98;3.50;;;;;;;;;;4973424;28;20041;-84
2023/01/16 02:32:07;;;;;;;5.25;2.72;;;;;;;;;;5005748;28;20188;-85
2023/01/16 02:34:58;;;;;;;10.90;3.17;;;;;;;;;;5032224;28;20210;-85
2023/01/16 02:37:42;;;;;;;9.65;3.05;;;;;;;;;;5050139;28;20044;-86
2023/01/16 02:40:12;;;;;;;7.00;2.88;;;;;;;;;;5032994;28;20048;-85
2023/01/16 02:43:01;;;;;;;10.45;2.75;;;;;;;;;;5032951;28;20071;-85
2023/01/16 02:45:36;;;;;;;8.68;3.17;;;;;;;;;;5024549;28;20049;-85
2023/01/16 02:48:07;;;;;;;9.75;3.00;;;;;;;;;;5049868;28;20036;-85
2023/01/16 02:50:36;;;;;;;12.30;3.58;;;;;;;;;;5049422;28;20044;-86
2023/01/16 02:53:20;;;;;;;7.57;3.17;;;;;;;;;;5032987;28;20129;-85
2023/01/16 02:55:52;;;;;;;9.13;2.95;;;;;;;;;;5033054;28;20754;-85
2023/01/16 02:58:19;;;;;;;6.50;3.30;;;;;;;;;;5049771;28;20086;-85
2023/01/16 03:00:56;;;;;;;9.15;3.55;;;;;;;;;;5049525;28;20501;-85
2023/01/16 03:03:34;;;;;;;7.95;3.33;;;;;;;;;;5049338;28;20570;-86
2023/01/16 03:06:03;;;;;;;6.20;3.33;;;;;;;;;;5040623;28;20118;-85
2023/01/16 03:08:36;;;;;;;9.82;3.78;;;;;;;;;;5045300;28;20040;-85
2023/01/16 03:11:12;;;;;;;7.78;4.13;;;;;;;;;;5049215;28;20055;-86
2023/01/16 03:13:51;;;;;;;11.00;3.75;;;;;;;;;;5048168;28;20094;-85
2023/01/16 03:16:36;;;;;;;6.28;3.72;;;;;;;;;;5049052;28;20143;-85
2023/01/16 03:19:05;;;;;;;7.82;4.13;;;;;;;;;;5031908;28;20036;-86
2023/01/16 03:21:54;;;;;;;7.18;4.13;;;;;;;;;;5048733;28;20053;-85
2023/01/16 03:24:31;;;;;;;8.32;4.53;;;;;;;;;;5048342;28;20145;-85
2023/01/16 03:27:01;;;;;;;9.50;3.65;;;;;;;;;;5048808;28;20131;-86
2023/01/16 03:29:35;;;;;;;14.68;5.47;;;4.30;99.90;;;;;;5048528;28;20036;-86
2023/01/16 03:32:10;;;;;;;12.88;4.93;;;4.10;99.90;;;;;;5048468;28;20095;-84
2023/01/16 03:34:36;;;;;;;8.32;4.40;;;;;;;;;;5042086;28;20048;-85
2023/01/16 03:37:06;;;;;;;9.27;4.53;;;;;;;;;;5040899;28;20110;-86
2023/01/16 03:39:37;;;;;;;9.95;5.18;;;;;;;;;;5033984;28;20078;-85
2023/01/16 03:42:09;;;;;;;9.57;5.05;;;;;;;;;;5031344;28;20079;-85
2023/01/16 03:44:43;;;;;;;9.32;4.80;;;4.20;99.90;;;;;;5031462;28;20110;-85
2023/01/16 03:47:17;;;;;;;11.80;5.95;;;;;;;;;;5031449;28;20036;-85
2023/01/16 03:49:47;;;;;;;7.95;5.72;;;;;;;;;;5031486;28;20477;-85
2023/01/16 03:52:14;;;;;;;8.75;5.95;;;;;;;;;;5031253;28;20093;-85
2023/01/16 03:54:46;;;;;;;8.70;6.30;;;;;;;;;;5031427;28;20166;-85
2023/01/16 03:57:15;;;;;;;10.75;6.93;;;;;;;;;;5031137;28;20072;-85
2023/01/16 03:59:43;;;;;;;10.57;7.22;;;;;;;;;;5047745;28;20052;-85
2023/01/16 04:02:12;;;;;;;12.38;6.22;;;;;;;;;;5031016;28;20044;-86
2023/01/16 04:04:53;;;;;;;9.90;6.95;;;;;;;;;;5030917;28;20615;-85
2023/01/16 04:07:29;;;;;;;15.73;7.35;;;;;;;;;;5031055;28;20086;-86
2023/01/16 04:10:01;;;;;;;10.50;7.70;;;;;;;;;;5047821;28;20048;-85
2023/01/16 04:12:32;;;;;;;13.93;7.60;;;;;;;;;;5047735;28;20044;-84
2023/01/16 04:15:03;;;;;;;22.02;9.75;;;;;;;;;;5047785;28;20040;-85
2023/01/16 04:17:29;;;;;;;15.35;7.18;;;;;;;;;;5047678;28;20097;-84
2023/01/16 04:19:56;;;;;;;17.02;8.18;;;;;;;;;;5021704;28;20152;-85
2023/01/16 04:22:26;;;;;;;18.70;9.32;;;;;;;;;;5047383;28;20040;-85
2023/01/16 04:24:53;;;;;;;17.63;9.18;;;;;;;;;;5047061;28;20537;-84
2023/01/16 04:27:19;;;;;;;14.73;8.90;;;;;;;;;;5047323;28;20047;-85
2023/01/16 04:29:45;;;;;;;18.13;9.27;;;;;;;;;;5030989;28;20098;-84
2023/01/16 04:32:12;;;;;;;19.90;9.80;;;;;;;;;;5030660;28;20040;-85
2023/01/16 04:34:38;;;;;;;20.90;9.98;;;;;;;;;;5047310;28;20494;-85
2023/01/16 04:37:04;;;;;;;19.00;9.75;;;;;;;;;;5047207;28;20122;-85
2023/01/16 04:39:30;;;;;;;19.15;10.10;;;;;;;;;;5047303;28;20551;-85
2023/01/16 04:41:56;;;;;;;19.45;10.13;;;;;;;;;;5030528;28;20155;-85
2023/01/16 04:44:22;;;;;;;19.92;11.45;;;;;;;;;;5047036;28;20114;-85
2023/01/16 04:46:48;;;;;;;22.98;10.63;;;;;;;;;;5035442;28;20076;-86
2023/01/16 04:49:14;;;;;;;18.33;11.15;;;;;;;;;;5045190;28;20068;-85
2023/01/16 04:51:40;;;;;;;22.50;11.88;;;;;;;;;;5037429;28;20548;-85
2023/01/16 04:54:06;;;;;;;22.20;11.93;;;;;;;;;;5026801;28;20060;-84
2023/01/16 04:56:33;;;;;;;19.63;11.68;;;;;;;;;;5030643;28;20827;-83
2023/01/16 04:58:59;;;;;;;21.15;11.25;;;;;;;;;;5047329;28;20051;-85
2023/01/16 05:01:26;;;;;;;24.45;10.75;;;;;;;;;;5047095;28;20506;-86
2023/01/16 05:03:52;;;;;;;19.27;10.88;;;;;;;;;;5047223;28;20068;-85
2023/01/16 05:06:18;;;;;;;20.58;10.95;;;;;;;;;;5030614;28;20071;-86
2023/01/16 05:08:44;;;;;;;24.73;10.82;;;;;;;;;;5047362;28;20040;-86
2023/01/16 05:11:09;;;;;;;14.57;9.80;;;;;;;;;;5047222;28;20113;-84
2023/01/16 05:13:35;;;;;;;18.83;10.75;;;;;;;;;;5046737;28;20075;-85
2023/01/16 05:16:03;;;;;;;21.55;10.68;;;;;;;;;;5047046;28;20071;-85
2023/01/16 05:18:28;;;;;;;22.10;10.85;;;;;;;;;;5047100;28;20075;-86
2023/01/16 05:20:55;;;;;;;22.58;10.65;;;;;;;;;;5046925;28;20559;-85
2023/01/16 05:23:21;;;;;;;20.58;10.52;;;;;;;;;;5029398;28;20127;-85
2023/01/16 05:25:48;;;;;;;17.05;10.07;;;;;;;;;;5033892;28;20130;-85
2023/01/16 05:28:14;;;;;;;18.80;9.75;;;;;;;;;;5046947;28;20062;-85
2023/01/16 05:30:40;;;;;;;18.58;10.45;;;;;;;;;;5046982;28;20036;-84
2023/01/16 05:33:06;;;;;;;20.25;9.98;;;;;;;;;;5030347;28;20221;-85
2023/01/16 05:35:32;;;;;;;19.48;11.05;;;;;;;;;;5027568;28;20127;-85
2023/01/16 05:37:58;;;;;;;18.15;11.27;;;;;;;;;;5038527;28;20040;-85
2023/01/16 05:40:24;;;;;;;21.65;10.68;;;;;;;;;;5050866;28;20539;-85
2023/01/16 05:42:50;;;;;;;17.25;10.57;;;;;;;;;;5050553;28;20048;-85
2023/01/16 05:45:16;;;;;;;19.15;11.18;;;;;;;;;;5034076;28;20166;-85
2023/01/16 05:47:43;;;;;;;18.88;11.20;;;;;;;;;;5033969;28;20066;-86
2023/01/16 05:50:10;;;;;;;22.58;11.95;;;;;;;;;;5050927;28;20402;-85
2023/01/16 05:52:35;;;;;;;16.95;11.02;;;;;;;;;;5050220;28;20044;-87
2023/01/16 05:55:01;;;;;;;19.45;12.15;;;;;;;;;;5045033;28;20048;-85
2023/01/16 05:57:29;;;;;;;22.85;11.27;;;;;;;;;;5042383;28;20050;-85
2023/01/16 05:59:55;;;;;;;17.77;10.18;;;;;;;;;;5050393;28;20048;-85
2023/01/16 06:02:21;;;;;;;14.85;9.55;;;;;;;;;;5050272;28;20040;-85
2023/01/16 06:04:47;;;;;;;18.85;9.60;;;;;;;;;;5050317;28;20056;-85
2023/01/16 06:07:13;;;;;;;16.80;10.07;;;;;;;;;;5042932;28;20045;-85
2023/01/16 06:09:39;;;;;;;16.92;9.05;;;;;;;;;;5044473;28;20044;-85
2023/01/16 06:12:07;;;;;;;17.65;8.95;;;;;;;;;;5035836;28;20074;-85
2023/01/16 06:14:33;;;;;;;18.77;9.77;;;;;;;;;;5050435;28;20148;-85
2023/01/16 06:16:59;;;;;;;23.23;11.05;;;;;;;;;;5049872;28;20048;-86
2023/01/16 06:19:25;;;;;;;19.45;9.80;;;;;;;;;;5049891;28;20403;-85
2023/01/16 06:21:51;;;;;;;22.45;9.15;;;;;;;;;;5047336;28;20052;-86
2023/01/16 06:24:17;;;;;;;14.07;7.93;;;;;;;;;;5038141;28;20055;-84
2023/01/16 06:26:43;;;;;;;14.05;8.18;;;;;;;;;;5049709;28;20566;-85
2023/01/16 06:29:10;;;;;;;16.38;8.38;;;;;;;;;;5033218;28;20044;-85
2023/01/16 06:31:36;;;;;;;13.18;7.60;;;;;;;;;;5049308;28;20170;-85
2023/01/16 06:34:02;;;;;;;14.73;7.03;;;;;;;;;;5032722;28;20044;-85
2023/01/16 06:36:28;;;;;;;21.17;8.50;;;;;;;;;;5039213;28;20072;-86
2023/01/16 06:38:54;;;;;;;13.30;6.63;;;;;;;;;;5046124;28;20075;-85
2023/01/16 06:41:20;;;;;;;11.95;6.65;;;;;;;;;;5049273;28;20053;-86
2023/01/16 06:43:46;;;;;;;15.32;6.68;;;;;;;;;;5049216;28;20053;-85
2023/01/16 06:46:12;;;;;;;13.50;6.45;;;;;;;;;;5049551;28;20108;-86
2023/01/16 06:48:38;;;;;;;10.98;5.75;;;;;;;;;;5049498;28;20045;-85
2023/01/16 06:51:04;;;;;;;16.15;6.65;;;;;;;;;;5049096;28;20071;-85
2023/01/16 06:53:30;;;;;;;14.15;6.97;;;;;;;;;;5049492;28;20044;-86
2023/01/16 06:55:56;;;;;;;12.55;6.05;;;;;;;;;;5049577;28;20040;-85
2023/01/16 06:58:22;;;;;;;11.43;5.55;;;;;;;;;;5049311;28;20079;-85
2023/01/16 07:00:50;;;;;;;11.48;5.55;;;;;;;;;;5038616;28;20051;-85
2023/01/16 07:03:17;;;;;;;13.02;5.28;;;;;;;;;;5046405;28;20074;-86
2023/01/16 07:05:45;;;;;;;14.95;6.03;;;3.80;99.90;;;;;;5049084;28;20048;-85
2023/01/16 07:08:11;;;;;;;13.35;6.38;;;;;;;;;;5047249;28;20048;-85
2023/01/16 07:10:37;;;;;;;13.90;4.88;;;;;;;;;;5029232;28;20044;-85
2023/01/16 07:13:03;;;;;;;8.95;5.07;;;;;;;;;;5042787;28;20510;-86
2023/01/16 07:24:04;;;;;;;11.68;4.55;;;;;;;;;;5048394;28;20502;-85
2023/01/16 07:26:31;;;;;;;10.93;4.38;;;;;;;;;;5048722;28;20063;-85
2023/01/16 07:28:58;;;;;;;10.40;3.95;;;;;;;;;;5048333;28;21013;-85
2023/01/16 07:31:24;;;;;;;6.80;4.25;;;;;;;;;;5039807;28;20044;-85
2023/01/16 07:33:50;;;;;;;8.95;4.03;;;;;;;;;;5048362;28;20494;-85
2023/01/16 07:36:17;;;;;;;8.82;4.60;;;;;;;;;;5031603;28;20135;-85
2023/01/16 07:38:43;;;;;;;8.55;4.63;;;;;;;;;;5017718;28;20580;-85
2023/01/16 07:41:09;;;;;;;8.73;4.20;;;;;;;;;;5031268;28;20088;-84
2023/01/16 07:43:35;;;;;;;8.77;3.42;;;;;;;;;;5031590;28;20084;-85
2023/01/16 07:46:01;;;;;;;11.48;3.80;;;;;;;;;;5031830;28;20102;-85
2023/01/16 07:48:27;;;;;;;9.55;3.88;;;;;;;;;;5031861;28;20051;-85
2023/01/16 07:50:54;;;;;;;7.88;3.90;;;;;;;;;;5048537;28;20032;-85
2023/01/16 07:53:22;;;;;;;9.55;3.55;;;;;;;;;;5030164;28;20040;-85
2023/01/16 07:55:52;;;;;;;11.27;4.07;;;;;;;;;;5048313;28;20123;-85
2023/01/16 07:58:18;;;;;;;9.50;3.97;;;;;;;;;;5031377;28;20501;-85
2023/01/16 08:00:44;;;;;;;15.98;4.05;;;;;;;;;;5047671;28;20040;-85
2023/01/16 08:03:11;;;;;;;8.05;3.67;;;;;;;;;;5045399;28;20441;-85
2023/01/16 08:05:37;;;;;;;11.88;3.85;;;;;;;;;;5036743;28;20052;-85
2023/01/16 08:08:03;;;;;;;13.85;5.50;;;;;;;;;;5031127;28;20036;-85
2023/01/16 08:10:29;;;;;;;13.50;5.13;;;;;;;;;;5048057;28;20071;-84
2023/01/16 08:12:55;;;;;;;9.70;3.80;;;;;;;;;;5047832;28;20075;-86
2023/01/16 08:15:21;;;;;;;11.48;4.22;;;;;;;;;;5025290;28;20558;-86
2023/01/16 08:17:47;;;;;;;11.85;4.00;;;;;;;;;;5026725;28;20048;-86
2023/01/16 08:20:13;;;;;;;9.75;4.03;;;;;;;;;;5034333;28;20085;-86
2023/01/16 08:22:46;;;;;;;8.10;4.90;;;;;;;;;;5017049;28;20044;-84
2023/01/16 08:25:12;;;;;;;9.57;4.05;;;;;;;;;;5040691;28;20037;-85
2023/01/16 08:27:38;;;;;;;12.70;4.35;;;;;;;;;;5019173;28;20139;-85
2023/01/16 08:30:05;;;;;;;9.93;5.68;;;;;;;;;;5038336;28;20152;-85
2023/01/16 08:32:31;;;;;;;11.10;4.32;;;;;;;;;;5033219;28;20443;-85
2023/01/16 08:34:57;;;;;;;11.85;4.43;;;;;;;;;;5029500;28;20098;-83
2023/01/16 08:37:23;;;;;;;8.70;3.63;;;;;;;;;;5043280;28;20065;-85
2023/01/16 08:39:49;;;;;;;11.48;6.90;;;;;;;;;;5036765;28;20189;-87
2023/01/16 08:53:14;;;;;;;13.50;4.95;;;;;;;;;;5040606;28;20677;-86
2023/01/16 08:55:40;;;;;;;9.25;4.85;;;;;;;;;;5046338;28;20406;-84
2023/01/16 08:58:06;;;;;;;13.50;5.40;;;;;;;;;;5044393;28;20040;-84
2023/01/16 09:00:32;;;;;;;12.57;5.05;;;;;;;;;;5046569;28;20045;-85
2023/01/16 09:02:59;;;;;;;9.55;5.40;;;;;;;;;;5029587;28;20824;-85
2023/01/16 09:05:25;;;;;;;8.43;4.70;;;;;;;;;;5033547;28;20128;-83
2023/01/16 09:07:51;;;;;;;6.00;3.95;;;;;;;;;;5046911;28;20769;-86
2023/01/16 09:10:17;;;;;;;8.65;4.72;;;;;;;;;;5041272;28;20032;-86
2023/01/16 09:15:28;;;;;;;6.47;3.40;;;;;;;;;;5049086;28;20696;-84
2023/01/16 09:17:54;;;;;;;8.02;4.80;;;;;;;;;;5050433;28;20055;-85
2023/01/16 09:20:20;;;;;;;8.65;5.10;;;;;;;;;;5049441;28;20123;-84
2023/01/16 09:22:46;;;;;;;10.30;4.70;;;;;;;;;;5046123;28;20154;-84
2023/01/16 09:25:12;;;;;;;10.95;4.90;;;;;;;;;;5033573;28;20483;-85
2023/01/16 09:27:38;;;;;;;8.73;4.30;;;;;;;;;;5050001;28;20818;-84
2023/01/16 09:30:05;;;;;;;13.20;4.65;;;;;;;;;;5049066;28;20040;-84
2023/01/16 09:32:33;;;;;;;8.20;3.63;;;;;;;;;;5046681;28;20037;-84
2023/01/16 09:34:59;;;;;;;8.50;4.40;;;;;;;;;;5046937;28;20057;-84
2023/01/16 09:37:25;;;;;;;8.65;4.45;;;;;;;;;;5047901;28;20045;-84
2023/01/16 09:39:51;;;;;;;10.82;6.57;;;;;;;;;;5049295;28;20056;-84
2023/01/16 09:45:14;;;;;;;7.50;4.00;;;;;;;;;;5047795;28;20143;-84
2023/01/16 09:47:44;;;;;;;8.93;4.72;;;4.70;99.90;;;;;;5044353;28;20048;-87
2023/01/16 09:50:16;;;;;;;9.25;4.43;;;;;;;;;;5050583;28;20438;-86
2023/01/16 09:58:37;;;;;;;6.20;3.53;;;;;;;;;;5051600;28;20056;-85
2023/01/16 10:01:09;;;;;;;8.63;4.10;;;;;;;;;;5027743;28;20056;-84
2023/01/16 10:03:42;;;;;;;8.50;4.38;;;;;;;;;;5021185;28;20044;-85
2023/01/16 10:06:30;;;;;;;4.25;2.85;;;;;;;;;;5051712;28;20044;-85
2023/01/16 10:08:59;;;;;;;5.38;3.25;;;;;;;;;;5052526;28;20040;-85
2023/01/16 10:11:40;;;;;;;6.30;3.42;;;;;;;;;;5035119;28;20044;-85
2023/01/16 10:14:24;;;;;;;11.98;3.25;;;;;;;;;;5051852;28;20138;-84
2023/01/16 10:16:55;;;;;;;4.87;2.40;;;;;;;;;;5048531;28;20058;-84
2023/01/16 10:19:21;;;;;;;5.32;2.38;;;;;;;;;;5037917;28;20461;-84
2023/01/16 10:21:53;;;;;;;4.85;2.45;;;;;;;;;;5045186;28;20052;-85
2023/01/16 10:24:25;;;;;;;4.53;2.13;;;;;;;;;;5022902;28;20102;-85
2023/01/16 10:26:51;;;;;;;4.38;2.45;;;;;;;;;;5035336;28;20036;-87
2023/01/16 10:29:23;;;;;;;4.15;2.35;;;;;;;;;;5051609;28;20048;-85
2023/01/16 10:32:01;;;;;;;3.05;1.35;;;;;;;;;;5048282;28;20076;-85
2023/01/16 10:34:34;;;;;;;4.90;2.30;;;;;;;;;;5035193;28;20075;-84
2023/01/16 10:37:00;;;;;;;3.88;1.90;;;;;;;;;;5020480;28;20052;-86
2023/01/16 10:39:37;;;;;;;3.58;1.95;;;;;;;;;;5051803;28;20044;-85
2023/01/16 10:50:28;;;;;;;4.45;1.98;;;;;;;;;;5048407;28;20136;-84
2023/01/16 10:52:54;;;;;;;2.40;2.20;;;;;;;;;;5031645;28;20231;-85
2023/01/16 10:55:20;;;;;;;1.88;1.27;;;;;;;;;;5031350;28;20090;-84
2023/01/16 10:57:49;;;;;;;2.38;2.08;;;;;;;;;;5032102;28;20040;-84
2023/01/16 11:00:24;;;;;;;5.88;1.70;;;;;;;;;;5037317;28;20707;-84
2023/01/16 11:02:50;;;;;;;2.15;1.95;;;;;;;;;;5052200;28;20048;-85
2023/01/16 11:05:26;;;;;;;3.28;2.05;;;;;;;;;;5051198;28;20051;-85
2023/01/16 11:07:51;;;;;;;;;;;;;;;;;;5050189;28;20553;-85
2023/01/16 11:10:17;;;;;;;4.15;1.77;;;;;;;;;;5050271;28;20032;-84
2023/01/16 11:18:30;;;;;;;2.30;1.70;;;;;;;;;;5051204;28;20044;-85
2023/01/16 11:20:58;;;;;;;5.05;2.30;;;4.10;99.90;;;;;;5051378;28;20043;-84
2023/01/16 11:23:34;;;;;;;3.15;2.00;;;;;;;;;;5032799;28;20071;-84
2023/01/16 11:26:00;;;;;;;2.78;2.30;;;;;;;;;;5022222;28;20160;-84
2023/01/16 11:28:27;;;;;;;3.80;2.80;;;;;;;;;;5051010;28;20502;-85
2023/01/16 11:31:00;;;;;;;4.13;2.97;;;4.10;99.90;;;;;;5019482;28;20037;-84
2023/01/16 11:33:28;;;;;;;2.70;2.25;;;;;;;;;;5027894;28;20106;-86
2023/01/16 11:35:55;;;;;;;2.90;2.15;;;;;;;;;;5049776;28;20123;-86
2023/01/16 11:38:22;;;;;;;4.00;2.58;;;;;;;;;;5033794;28;20048;-85
2023/01/16 11:40:49;;;;;;;3.75;2.60;;;;;;;;;;5049928;28;20071;-85
2023/01/16 11:46:22;;;;;;;4.03;1.98;;;;;;;;;;5048531;28;20040;-84
2023/01/16 11:48:52;;;;;;;2.40;2.20;;;;;;;;;;5048558;28;20058;-84
2023/01/16 11:51:21;;;;;;;2.30;1.90;;;;;;;;;;5048979;28;20032;-85
2023/01/16 11:53:48;;;;;;;3.92;2.20;;;;;;;;;;5031698;28;20058;-85
2023/01/16 11:56:36;;;;;;;5.13;2.22;;;;;;;;;;5031838;28;20048;-86
2023/01/16 11:59:25;;;;;;;3.17;2.65;;;;;;;;;;5048167;28;20483;-84
2023/01/16 12:02:18;;;;;;;5.32;2.75;;;4.50;99.90;;;;;;4988466;28;20059;-87
2023/01/16 12:07:57;;;;;;;3.88;2.80;;;;;;;;;;5040280;28;20045;-87
2023/01/16 12:10:42;;;;;;;4.82;3.28;;;;;;;;;;5031157;28;20037;-87
2023/01/16 12:15:54;;;;;;;;;;;;;;;;;;5028124;28;20044;-88
2023/01/16 12:18:28;;;;;;;4.00;2.70;;;;;;;;;;5029407;28;19927;-87
2023/01/16 12:21:00;;;;;;;3.80;3.17;;;;;;;;;;5026734;28;20768;-88
2023/01/16 12:23:26;;;;;;;5.85;2.67;;;;;;;;;;5030216;28;20045;-86
2023/01/16 12:26:08;;;;;;;4.82;2.75;;;;;;;;;;5022311;28;20044;-87
2023/01/16 12:28:34;;;;;;;4.03;3.00;;;;;;;;;;5030351;28;20044;-86
2023/01/16 12:33:51;;;;;;;2.90;2.55;;;;;;;;;;5045468;28;20091;-86
2023/01/16 12:36:35;;;;;;;6.65;2.70;;;;;;;;;;5043645;28;20104;-87
2023/01/16 12:39:11;;;;;;;4.40;2.47;;;;;;;;;;5028763;28;20071;-86
2023/01/16 12:44:21;;;;;;;3.70;2.90;;;;;;;;;;5046874;28;19942;-87
2023/01/16 12:47:04;;;;;;;3.90;2.88;;;;;;;;;;5048266;28;20411;-90
2023/01/16 12:49:33;;;;;;;5.72;2.90;;;;;;;;;;5031826;28;20059;-87
2023/01/16 12:52:19;;;;;;;4.05;2.92;;;;;;;;;;5036853;28;20048;-87
2023/01/16 12:54:59;;;;;;;5.00;2.78;;;;;;;;;;5037397;28;20068;-88
2023/01/16 12:57:31;;;;;;;6.00;3.13;;;;;;;;;;5034585;28;20563;-88
2023/01/16 13:00:02;;;;;;;3.17;2.88;;;;;;;;;;5031344;28;20045;-89
2023/01/16 13:02:35;;;;;;;4.03;2.53;;;;;;;;;;5028862;28;20551;-88
2023/01/16 13:05:06;;;;;;;4.45;3.25;;;;;;;;;;5039622;28;20056;-89
2023/01/16 13:07:38;;;;;;;6.10;3.28;;;;;;;;;;5037574;28;20406;-88
2023/01/16 13:15:42;;;;;;;4.95;3.10;;;;;;;;;;5041351;28;20040;-90
2023/01/16 13:18:15;;;;;;;3.15;2.83;;;;;;;;;;5045359;28;20097;-89
2023/01/16 13:20:42;;;;;;;3.67;3.38;;;;;;;;;;5040590;28;20037;-90
2023/01/16 13:23:17;;;;;;;4.68;3.78;;;;;;;;;;5049727;28;20109;-88
2023/01/16 13:25:45;;;;;;;6.75;4.25;;;;;;;;;;5048952;28;20037;-89
2023/01/16 13:28:30;;;;;;;5.22;3.38;;;;;;;;;;5046262;28;20055;-87
2023/01/16 13:30:58;;;;;;;4.67;3.40;;;;;;;;;;5044862;28;20473;-88
2023/01/16 13:33:28;;;;;;;5.90;3.95;;;;;;;;;;5035802;28;20289;-85
2023/01/16 13:36:05;;;;;;;5.97;3.80;;;;;;;;;;5053428;28;20064;-88
2023/01/16 13:38:50;;;;;;;5.55;3.97;;;;;;;;;;5034118;28;20074;-87
2023/01/16 13:41:19;;;;;;;4.95;3.88;;;;;;;;;;5035818;28;20060;-89
2023/01/16 13:46:30;;;;;;;6.15;3.53;;;;;;;;;;5051445;28;20131;-89
2023/01/16 13:48:59;;;;;;;5.93;3.40;;;;;;;;;;5053759;28;20043;-89
2023/01/16 13:51:25;;;;;;;4.65;3.75;;;;;;;;;;5053521;28;20044;-88
2023/01/16 13:53:54;;;;;;;7.03;3.65;;;;;;;;;;5047409;28;20451;-88
2023/01/16 13:56:22;;;;;;;7.78;3.40;;;;;;;;;;5033314;28;20055;-88
2023/01/16 13:58:59;;;;;;;4.88;3.75;;;;;;;;;;5033482;28;20040;-88
2023/01/16 14:01:31;;;;;;;6.03;3.47;;;;;;;;;;5029750;28;20091;-87
2023/01/16 14:04:16;;;;;;;5.20;3.25;;;;;;;;;;5050367;28;21008;-86
2023/01/16 14:10:04;;;;;;;4.28;3.10;;;;;;;;;;4984664;28;20073;-87
2023/01/16 14:12:34;;;;;;;5.57;4.03;;;;;;;;;;5026567;28;20140;-86
2023/01/16 14:18:01;;;;;;;3.50;3.00;;;;;;;;;;5049423;28;20084;-87
2023/01/16 14:20:42;;;;;;;5.80;3.25;;;;;;;;;;5029047;28;20102;-88
2023/01/16 14:26:01;;;;;;;5.88;3.45;;;;;;;;;;5043501;28;20403;-86
2023/01/16 14:28:27;;;;;;;4.53;3.53;;;;;;;;;;5032833;28;20056;-87
2023/01/16 14:30:53;;;;;;;3.72;2.80;;;;;;;;;;5032761;28;20059;-86
2023/01/16 14:33:20;;;;;;;4.10;3.17;;;;;;;;;;5041768;28;20048;-86
2023/01/16 14:35:54;;;;;;;5.28;3.53;;;;;;;;;;5033181;28;20037;-85
2023/01/16 14:38:21;;;;;;;5.10;3.03;;;;;;;;;;5021051;28;20048;-85
2023/01/16 14:55:15;;;;;;;7.95;3.70;;;;;;;;;;5030931;28;20510;-84
2023/01/16 14:57:42;;;;;;;3.78;2.70;;;;;;;;;;5023105;28;20048;-85
2023/01/16 15:00:12;;;;;;;5.82;3.22;;;;;;;;;;5009324;28;20045;-85
2023/01/16 15:02:44;;;;;;;3.90;3.33;;;;;;;;;;5037033;28;20047;-85
2023/01/16 15:05:14;;;;;;;4.57;3.10;;;;;;;;;;5044388;28;20076;-86
2023/01/16 15:07:57;;;;;;;3.72;2.75;;;;;;;;;;5020305;28;20128;-85
2023/01/16 15:10:38;;;;;;;4.43;2.70;;;;;;;;;;5040040;28;20040;-88
2023/01/16 15:13:20;;;;;;;4.65;2.97;;;;;;;;;;5014345;28;20204;-87
2023/01/16 15:15:57;;;;;;;4.35;2.88;;;;;;;;;;5017474;28;20056;-88
2023/01/16 15:23:57;;;;;;;5.40;3.08;;;;;;;;;;5030571;28;20067;-86
2023/01/16 15:26:32;;;;;;;3.65;2.33;;;;;;;;;;5033738;28;20041;-88
2023/01/16 15:29:02;;;;;;;5.03;2.97;;;;;;;;;;5027546;28;20629;-89
2023/01/16 15:31:28;;;;;;;3.42;2.60;;;;;;;;;;5042856;28;20048;-87
2023/01/16 15:34:00;;;;;;;3.22;2.92;;;;;;;;;;5027530;28;20048;-88
2023/01/16 15:36:37;;;;;;;4.18;2.83;;;;;;;;;;5034671;28;20045;-87
2023/01/16 15:39:18;;;;;;;4.63;2.80;;;;;;;;;;5042389;28;20530;-89
2023/01/16 15:47:22;;;;;;;5.15;2.65;;;;;;;;;;5040146;28;20080;-88
2023/01/16 15:49:55;;;;;;;3.85;3.00;;;;;;;;;;5039721;28;20037;-89
2023/01/16 15:52:21;;;;;;;4.60;3.35;;;;;;;;;;5024515;28;20050;-88
2023/01/16 15:54:47;;;;;;;6.70;2.83;;;;;;;;;;5044144;28;20053;-89
2023/01/16 15:57:18;;;;;;;4.13;3.00;;;;;;;;;;5040789;28;20037;-88
2023/01/16 16:00:10;;;;;;;6.40;3.28;;;;;;;;;;5041190;28;20044;-89
2023/01/16 16:02:41;;;;;;;6.65;5.32;;;;;;;;;;5002961;28;20053;-89
2023/01/16 16:05:09;;;;;;;6.93;4.45;;;;;;;;;;5026821;28;20556;-89
2023/01/16 16:07:35;;;;;;;4.60;3.17;;;;;;;;;;5027185;28;20123;-89
2023/01/16 16:10:02;;;;;;;4.20;3.13;;;;;;;;;;5041284;28;20144;-90
2023/01/16 16:12:28;;;;;;;4.13;2.95;;;;;;;;;;5043710;28;20127;-89
2023/01/16 16:18:02;;;;;;;4.18;2.83;;;;;;;;;;5043499;28;20053;-88
2023/01/16 16:20:30;;;;;;;3.40;2.75;;;;;;;;;;5042093;28;20052;-87
2023/01/16 16:23:17;;;;;;;5.25;3.63;;;;;;;;;;5020071;28;20053;-87
2023/01/16 16:25:54;;;;;;;4.32;3.40;;;;;;;;;;5038480;28;20526;-87
2023/01/16 16:28:23;;;;;;;5.22;3.15;;;;;;;;;;5024585;28;20041;-87
2023/01/16 16:31:15;;;;;;;3.30;3.00;;;;;;;;;;5043492;28;20410;-88
2023/01/16 16:33:43;;;;;;;7.80;3.67;;;;;;;;;;5038019;28;20541;-88
2023/01/16 16:36:14;;;;;;;7.55;3.33;;;;;;;;;;5043830;28;20132;-86
2023/01/16 16:38:40;;;;;;;6.35;3.22;;;;;;;;;;5018715;28;20045;-88